Time;durP1;ratioP1;P1;durP2;ratioP2;P2;SDS_P1;SDS_P2;PMS_P1;PMS_P2;Temp;Humidity;BMP_temperature;BMP_pressure;BME280_temperature;BME280_humidity;BME280_pressure;Samples;Min_cycle;Max_cycle;Signal;HPM_P1;HPM_P2
2020/12/24 00:01:37;;;;;;;4.45;1.15;;;;;;;8.74;100.00;100144.19;4999460;28;20072;-88
2020/12/24 00:04:02;;;;;;;6.05;1.20;;;;;;;8.73;100.00;100147.03;5010259;28;20065;-93
2020/12/24 00:06:28;;;;;;;4.60;1.00;;;;;;;8.72;100.00;100140.88;5012992;28;20034;-89
2020/12/24 00:08:53;;;;;;;4.05;1.17;;;;;;;8.69;100.00;100135.84;5026687;28;20243;-91
2020/12/24 00:11:18;;;;;;;3.50;1.00;;;;;;;8.60;100.00;100136.84;5008362;28;20410;-88
2020/12/24 00:13:44;;;;;;;4.30;0.88;;;;;;;8.58;100.00;100139.69;5009982;28;20065;-91
2020/12/24 00:16:09;;;;;;;3.28;0.80;;;;;;;8.51;100.00;100153.88;4996373;28;20037;-93
2020/12/24 00:18:34;;;;;;;2.13;0.90;;;;;;;8.42;100.00;100141.53;5024151;28;20037;-88
2020/12/24 00:21:00;;;;;;;3.92;0.90;;;;;;;8.33;100.00;100129.94;5003128;28;20402;-90
2020/12/24 00:23:25;;;;;;;2.83;0.98;;;;;;;8.24;100.00;100134.44;5010385;28;20140;-88
2020/12/24 00:25:50;;;;;;;1.60;0.70;;;;;;;8.15;100.00;100143.47;5031134;28;20044;-89
2020/12/24 00:28:16;;;;;;;1.60;0.70;;;;;;;8.11;100.00;100134.94;5009352;28;20056;-91
2020/12/24 00:30:41;;;;;;;3.42;0.88;;;;;;;8.10;100.00;100143.13;5023451;28;20046;-87
2020/12/24 00:33:13;;;;;;;1.52;0.90;;;;;;;8.03;100.00;100140.28;5018365;28;20048;-88
2020/12/24 00:35:39;;;;;;;1.98;1.00;;;;;;;7.98;100.00;100142.59;5021381;28;20037;-90
2020/12/24 00:38:04;;;;;;;2.22;0.85;;;;;;;7.90;100.00;100135.38;5009742;28;20037;-89
2020/12/24 00:40:30;;;;;;;1.08;0.60;;;;;;;7.86;100.00;100128.69;5009729;28;20103;-87
2020/12/24 00:42:55;;;;;;;1.17;0.60;;;;;;;7.80;100.00;100129.34;4998725;28;20172;-92
2020/12/24 00:45:21;;;;;;;2.80;0.75;;;;;;;7.78;100.00;100130.50;5007861;28;20045;-86
2020/12/24 00:47:47;;;;;;;1.33;0.60;;;;;;;7.76;100.00;100130.66;4996725;28;20083;-90
2020/12/24 00:50:12;;;;;;;1.95;0.70;;;;;;;7.74;100.00;100130.00;4996476;28;20050;-87
2020/12/24 00:52:38;;;;;;;1.33;0.80;;;;;;;7.71;100.00;100126.81;5014293;28;20493;-87
2020/12/24 00:55:04;;;;;;;1.17;0.65;;;;;;;7.68;100.00;100120.81;5012974;28;20512;-89
2020/12/24 00:57:29;;;;;;;1.85;1.02;;;;;;;7.65;100.00;100126.47;5029242;28;20051;-87
2020/12/24 00:59:54;;;;;;;3.25;1.00;;;;;;;7.69;100.00;100121.63;5010117;28;20359;-91
2020/12/24 01:02:20;;;;;;;2.38;1.10;;;;;;;7.66;100.00;100125.47;5016335;28;20099;-87
2020/12/24 01:04:45;;;;;;;3.25;1.10;;;;;;;7.69;100.00;100132.31;5008531;28;20046;-88
2020/12/24 01:07:10;;;;;;;2.35;1.00;;;;;;;7.64;100.00;100127.44;4993883;28;20061;-92
2020/12/24 01:09:36;;;;;;;2.88;1.20;;;;;;;7.63;100.00;100119.63;5006384;28;20037;-88
2020/12/24 01:12:04;;;;;;;3.00;1.38;;;;;;;7.61;100.00;100118.94;5019354;28;20492;-90
2020/12/24 01:14:30;;;;;;;1.88;1.02;;;;;;;7.60;100.00;100125.28;5028589;28;20371;-88
2020/12/24 01:16:56;;;;;;;5.32;1.40;;;;;;;7.64;100.00;100134.63;5022944;28;20061;-90
2020/12/24 01:19:21;;;;;;;3.78;1.45;;;;;;;7.63;100.00;100127.63;5027851;28;20127;-89
2020/12/24 01:21:47;;;;;;;3.58;1.55;;;;;;;7.63;100.00;100111.59;5013409;28;20498;-93
2020/12/24 01:24:13;;;;;;;4.97;1.55;;;;;;;7.61;100.00;100116.25;5018494;28;20120;-90
2020/12/24 01:26:45;;;;;;;3.92;1.80;;;;;;;7.61;100.00;100113.59;5010241;28;20129;-90
2020/12/24 01:29:10;;;;;;;4.75;1.88;;;;;;;7.63;100.00;100119.63;5028959;28;20444;-89
2020/12/24 01:31:35;;;;;;;3.83;1.80;;;;;;;7.60;100.00;100127.94;4996598;28;20065;-91
2020/12/24 01:34:07;;;;;;;3.58;2.00;;;;;;;7.60;100.00;100120.78;4999206;28;20547;-89
2020/12/24 01:36:32;;;;;;;4.90;2.00;;;;;;;7.59;100.00;100123.59;5029117;28;20045;-91
2020/12/24 01:38:57;;;;;;;5.00;2.63;;;;;;;7.63;100.00;100117.78;5027049;28;20048;-88
2020/12/24 01:41:23;;;;;;;5.20;2.55;;;;;;;7.63;100.00;100119.63;4994346;28;20498;-90
2020/12/24 01:43:48;;;;;;;4.75;2.70;;;;;;;7.65;100.00;100125.59;4987749;28;20088;-90
2020/12/24 01:46:13;;;;;;;5.75;2.72;;;;;;;7.61;100.00;100117.09;4993717;28;20124;-90
2020/12/24 01:48:39;;;;;;;5.90;3.13;;;;;;;7.60;100.00;100123.44;4999665;28;20072;-90
2020/12/24 01:51:04;;;;;;;3.83;2.40;;;;;;;7.62;100.00;100125.94;5018663;28;20045;-91
2020/12/24 01:53:30;;;;;;;5.93;3.22;;;;;;;7.60;100.00;100118.09;5022585;28;20096;-89
2020/12/24 01:55:56;;;;;;;6.80;3.03;;;;;;;7.60;100.00;100123.44;5014046;28;20060;-93
2020/12/24 01:58:22;;;;;;;7.18;2.60;;;;;;;7.57;100.00;100122.94;5012488;28;20045;-88
2020/12/24 02:00:48;;;;;;;4.38;2.75;;;;;;;7.58;100.00;100114.75;5024701;28;20551;-89
2020/12/24 02:03:14;;;;;;;8.88;3.55;;;;;;;7.60;100.00;100106.59;4996964;28;20091;-88
2020/12/24 02:05:41;;;;;;;4.80;3.00;;;;;;;7.60;100.00;100106.59;5017334;28;20470;-88
2020/12/24 02:08:06;;;;;;;6.35;2.67;;;;;;;7.59;100.00;100110.25;5010329;28;20049;-88
2020/12/24 02:10:32;;;;;;;9.07;3.10;;;;;;;7.59;100.00;100104.91;5000098;28;20058;-88
2020/12/24 02:12:57;;;;;;;9.68;3.80;;;;;;;7.63;100.00;100104.44;5023612;28;20050;-88
2020/12/24 02:15:23;;;;;;;7.93;2.83;;;;;;;7.63;100.00;100098.25;5031442;28;20029;-89
2020/12/24 02:17:48;;;;;;;6.70;2.72;;;;;;;7.69;100.00;100108.28;5017451;28;20475;-88
2020/12/24 02:20:14;;;;;;;9.48;2.28;;;;;;;7.72;100.00;100102.63;5011858;28;20033;-90
2020/12/24 02:22:39;;;;;;;11.07;2.50;;;;;;;7.75;100.00;100096.13;5022688;28;20071;-90
2020/12/24 02:25:05;;;;;;;13.30;2.40;;;;;;;7.78;100.00;100104.63;5027748;28;20086;-89
2020/12/24 02:27:30;;;;;;;11.82;2.30;;;;;;;7.79;100.00;100103.63;5026777;28;20042;-88
2020/12/24 02:29:55;;;;;;;13.13;2.63;;;;;;;7.84;100.00;100103.97;5028589;28;20102;-89
2020/12/24 02:32:21;;;;;;;7.32;1.80;;;;;;;7.85;100.00;100111.00;5036095;28;20616;-88
2020/12/24 02:34:46;;;;;;;9.05;2.15;;;;;;;7.86;100.00;100095.81;5018518;28;20049;-90
2020/12/24 02:37:12;;;;;;;6.95;1.60;;;;;;;7.83;100.00;100107.66;5014154;28;20063;-91
2020/12/24 02:39:38;;;;;;;4.32;1.27;;;;;;;7.83;100.00;100106.81;5022102;28;20064;-89
2020/12/24 02:42:03;;;;;;;7.07;1.25;;;;;;;7.82;99.87;100102.47;5027543;28;20181;-92
2020/12/24 02:44:29;;;;;;;4.28;1.20;;;;;;;7.80;100.00;100096.47;5038631;28;20381;-90
2020/12/24 02:46:54;;;;;;;2.53;1.10;;;;;;;7.76;99.49;100089.75;5029608;28;20045;-89
2020/12/24 02:49:20;;;;;;;8.63;1.30;;;;;;;7.72;98.39;100093.78;5009647;28;20039;-92
2020/12/24 02:51:45;;;;;;;4.15;1.20;;;;;;;7.71;98.08;100100.97;5003171;28;20053;-91
2020/12/24 02:54:10;;;;;;;5.93;1.70;;;;;;;7.70;99.26;100101.94;5031026;28;20046;-92
2020/12/24 02:56:36;;;;;;;5.45;1.25;;;;;;;7.68;99.42;100099.44;5027258;28;20038;-88
2020/12/24 02:59:01;;;;;;;9.32;1.20;;;;;;;7.67;99.37;100112.94;5007301;28;20045;-90
2020/12/24 03:01:27;;;;;;;5.25;1.10;;;;;;;7.65;99.64;100109.59;5021760;28;20037;-87
2020/12/24 03:03:52;;;;;;;5.40;1.35;;;;;;;7.64;100.00;100105.25;5027482;28;20045;-87
2020/12/24 03:06:17;;;;;;;6.13;1.27;;;;;;;7.63;100.00;100099.09;5017032;28;20034;-88
2020/12/24 03:08:43;;;;;;;4.80;1.23;;;;;;;7.64;100.00;100098.06;5035991;28;20049;-89
2020/12/24 03:11:08;;;;;;;6.72;1.33;;;;;;;7.58;100.00;100092.56;5014162;28;20037;-94
2020/12/24 03:13:33;;;;;;;5.53;1.30;;;;;;;7.56;100.00;100090.03;5019762;28;20116;-92
2020/12/24 03:16:00;;;;;;;4.50;1.13;;;;;;;7.58;100.00;100097.91;5030536;28;20038;-91
2020/12/24 03:18:25;;;;;;;7.55;1.30;;;;;;;7.53;100.00;100102.88;5002083;28;20033;-91
2020/12/24 03:20:50;;;;;;;11.45;1.70;;;;;;;7.54;100.00;100110.75;5039647;28;20041;-93
2020/12/24 03:23:22;;;;;;;6.43;1.23;;;;;;;7.53;100.00;100098.38;5023576;28;20183;-90
2020/12/24 03:25:57;;;;;;;6.28;1.45;;;;;;;7.51;100.00;100111.06;5039001;28;20041;-91
2020/12/24 03:28:23;;;;;;;5.38;1.20;;;;;;;7.51;100.00;100118.22;5032633;28;20107;-87
2020/12/24 03:30:48;;;;;;;6.72;1.70;;;;;;;7.50;100.00;100108.53;5019187;28;20030;-88
2020/12/24 03:33:25;;;;;;;6.97;1.45;;;;;;;7.47;100.00;100105.19;5014405;28;20120;-88
2020/12/24 03:35:57;;;;;;;4.85;1.30;;;;;;;7.47;100.00;100107.03;5015604;28;20069;-88
2020/12/24 03:38:31;;;;;;;8.27;1.70;;;;;;;7.44;100.00;100097.50;4999687;28;20490;-91
2020/12/24 03:41:16;;;;;;;6.80;2.17;;;;;;;7.43;100.00;100103.84;5023518;28;20053;-87
2020/12/24 03:43:56;;;;;;;8.45;1.70;;;;;;;7.35;100.00;100097.66;5030463;28;20991;-89
2020/12/24 03:46:24;;;;;;;8.13;1.63;;;;;;;7.32;100.00;100092.63;5013735;28;20487;-88
2020/12/24 03:48:50;;;;;;;10.38;2.15;;;;;;;7.29;100.00;100098.28;5013520;28;20124;-89
2020/12/24 03:51:28;;;;;;;10.98;2.05;;;;;;;7.28;100.00;100096.59;4995231;28;20129;-88
2020/12/24 03:54:13;;;;;;;9.95;2.35;;;;;;;7.28;100.00;100092.13;5029199;28;20156;-87
2020/12/24 03:56:38;;;;;;;9.32;2.20;;;;;;;7.23;100.00;100083.75;5019740;28;20030;-87
2020/12/24 03:59:03;;;;;;;11.63;2.70;;;;;;;7.23;100.00;100099.75;5011853;28;20067;-90
2020/12/24 04:01:29;;;;;;;9.88;1.92;;;;;;;7.19;100.00;100099.25;4995937;28;20505;-89
2020/12/24 04:03:54;;;;;;;8.77;2.42;;;;;;;7.24;100.00;100090.75;5011356;28;20050;-91
2020/12/24 04:06:22;;;;;;;9.60;2.30;;;;;;;7.17;100.00;100090.56;5011644;28;20128;-91
2020/12/24 04:08:49;;;;;;;11.55;2.05;;;;;;;7.16;100.00;100106.72;5010253;28;20046;-89
2020/12/24 04:11:14;;;;;;;6.80;2.47;;;;;;;7.14;100.00;100090.03;5011916;28;20077;-91
2020/12/24 04:13:40;;;;;;;14.88;3.00;;;;;;;7.13;100.00;100107.88;4995459;28;20110;-89
2020/12/24 04:16:05;;;;;;;9.93;2.67;;;;;;;7.15;100.00;100099.72;4995738;28;20038;-89
2020/12/24 04:18:34;;;;;;;13.05;2.53;;;;;;;7.09;100.00;100103.03;4994474;28;20042;-90
2020/12/24 04:21:01;;;;;;;9.70;2.28;;;;;;;7.08;100.00;100104.00;4992850;28;20038;-92
2020/12/24 04:23:31;;;;;;;10.93;2.70;;;;;;;7.09;100.00;100098.50;5012053;28;20052;-87
2020/12/24 04:25:56;;;;;;;10.68;2.70;;;;;;;7.09;100.00;100098.50;4995211;28;20065;-88
2020/12/24 04:28:21;;;;;;;12.27;2.85;;;;;;;7.07;100.00;100097.00;4997515;28;20038;-91
2020/12/24 04:31:03;;;;;;;14.13;3.20;;;;;;;7.07;100.00;100107.66;5010154;28;20061;-87
2020/12/24 04:36:40;;;;;;;11.82;2.80;;;;;;;7.02;100.00;100113.50;5037748;28;20049;-89
2020/12/24 04:39:13;;;;;;;15.68;3.90;;;;;;;7.02;100.00;100108.16;5010320;28;20029;-87
2020/12/24 04:41:46;;;;;;;16.08;3.75;;;;;;;7.01;100.00;100104.63;5000797;28;20038;-91
2020/12/24 04:44:17;;;;;;;18.15;3.63;;;;;;;6.99;100.00;100109.31;5014479;28;20025;-91
2020/12/24 04:46:43;;;;;;;16.70;3.47;;;;;;;7.01;100.00;100107.31;4996179;28;20037;-90
2020/12/24 04:49:10;;;;;;;11.70;3.38;;;;;;;7.01;100.00;100106.47;5034811;28;20086;-89
2020/12/24 04:51:44;;;;;;;12.73;2.90;;;;;;;7.03;100.00;100101.00;5000371;28;20038;-89
2020/12/24 04:54:13;;;;;;;10.77;2.83;;;;;;;7.01;100.00;100112.63;5006163;28;20045;-89
2020/12/24 04:56:40;;;;;;;9.80;3.38;;;;;;;6.99;100.00;100117.31;5005129;28;20702;-89
2020/12/24 04:59:12;;;;;;;6.30;3.25;;;;;;;6.60;100.00;100150.69;5023516;28;20041;-90
2020/12/24 05:01:54;;;;;;;4.93;3.40;;;;;;;6.33;100.00;100169.28;5028246;28;20085;-88
2020/12/24 05:04:26;;;;;;;4.40;2.60;;;;;;;6.05;100.00;100168.50;5010297;28;20045;-88
2020/12/24 05:07:07;;;;;;;3.30;1.75;;;;;;;5.60;100.00;100187.06;5008429;28;20726;-90
2020/12/24 05:09:35;;;;;;;2.00;1.40;;;;;;;5.25;100.00;100185.09;5026581;28;20046;-90
2020/12/24 05:12:01;;;;;;;2.40;1.52;;;;;;;5.12;100.00;100190.72;5028442;28;20057;-88
2020/12/24 05:14:38;;;;;;;2.08;1.40;;;;;;;4.90;100.00;100192.72;5027596;28;20080;-89
2020/12/24 05:17:08;;;;;;;3.15;1.95;;;;;;;4.84;100.00;100209.25;5023498;28;20037;-88
2020/12/24 05:19:49;;;;;;;2.60;1.80;;;;;;;4.78;100.00;100223.13;5012937;28;20393;-88
2020/12/24 05:22:23;;;;;;;2.28;1.48;;;;;;;4.63;100.00;100228.03;5004828;28;20106;-90
2020/12/24 05:24:51;;;;;;;1.50;1.10;;;;;;;4.57;100.00;100233.88;5018068;28;20767;-91
2020/12/24 05:27:30;;;;;;;1.90;1.33;;;;;;;4.50;100.00;100214.16;5033828;28;20041;-86
2020/12/24 05:29:57;;;;;;;1.17;0.90;;;;;;;4.37;100.00;100232.19;4992135;28;20045;-88
2020/12/24 05:32:45;;;;;;;0.85;0.70;;;;;;;4.33;100.00;100244.06;5030455;28;20541;-87
2020/12/24 05:35:14;;;;;;;0.70;0.50;;;;;;;4.20;100.00;100249.63;5026985;28;20398;-88
2020/12/24 05:37:46;;;;;;;1.10;0.60;;;;;;;4.18;100.00;100254.25;5028106;28;20051;-88
2020/12/24 05:40:28;;;;;;;0.40;0.30;;;;;;;4.09;100.00;100255.91;5023772;28;20441;-89
2020/12/24 05:43:13;;;;;;;0.50;0.40;;;;;;;4.01;100.00;100266.34;5011529;28;20045;-88
2020/12/24 05:45:41;;;;;;;0.70;0.40;;;;;;;3.92;100.00;100273.31;5026271;28;20486;-90
2020/12/24 05:48:14;;;;;;;0.60;0.50;;;;;;;3.88;100.00;100274.53;5021848;28;20057;-90
2020/12/24 05:50:41;;;;;;;0.63;0.40;;;;;;;3.84;100.00;100281.94;5010958;28;20046;-87
2020/12/24 05:53:13;;;;;;;0.75;0.60;;;;;;;3.76;100.00;100292.38;5011524;28;20030;-88
2020/12/24 05:55:54;;;;;;;0.77;0.65;;;;;;;3.72;100.00;100295.44;5009291;28;20038;-90
2020/12/24 05:58:19;;;;;;;0.70;0.50;;;;;;;3.76;100.00;100305.63;5025463;28;20502;-89
2020/12/24 06:00:56;;;;;;;0.40;0.40;;;;;;;3.69;100.00;100304.50;5009303;28;20065;-87
2020/12/24 06:03:36;;;;;;;0.50;0.43;;;;;;;3.67;100.00;100306.44;5027151;28;20426;-89
2020/12/24 06:06:30;;;;;;;3.75;1.20;;;;;;;3.57;100.00;100310.88;5013088;28;20050;-90
2020/12/24 06:09:13;;;;;;;4.35;1.20;;;;;;;3.57;100.00;100322.31;5018416;28;20061;-90
2020/12/24 06:11:51;;;;;;;1.02;0.65;;;;;;;3.52;100.00;100324.50;5019391;28;20056;-89
2020/12/24 06:14:34;;;;;;;0.80;0.60;;;;;;;3.43;100.00;100321.81;4983576;28;20069;-90
2020/12/24 06:17:06;;;;;;;0.82;0.70;;;;;;;3.42;100.00;100330.72;5028587;28;22355;-90
2020/12/24 06:19:50;;;;;;;0.95;0.75;;;;;;;3.46;100.00;100342.75;5026425;28;20080;-90
2020/12/24 06:22:25;;;;;;;2.75;1.90;;;;;;;3.44;100.00;100344.69;5023055;28;20120;-89
2020/12/24 06:24:59;;;;;;;2.85;1.20;;;;;;;3.41;100.00;100342.31;5003012;28;20049;-92
2020/12/24 06:28:02;;;;;;;4.05;3.45;;;;;;;3.41;100.00;100350.25;5004822;28;20053;-89
2020/12/24 06:30:34;;;;;;;1.52;1.10;;;;;;;3.44;100.00;100360.63;5035238;28;20045;-92
2020/12/24 06:33:01;;;;;;;2.15;1.88;;;;;;;3.39;100.00;100359.19;5020273;28;20138;-91
2020/12/24 06:35:33;;;;;;;2.13;1.92;;;;;;;3.42;100.00;100367.84;5016653;28;20026;-90
2020/12/24 06:38:38;;;;;;;2.20;1.90;;;;;;;3.38;100.00;100367.28;5034510;28;20417;-89
2020/12/24 06:41:21;;;;;;;2.22;1.67;;;;;;;3.41;100.00;100376.78;5028808;28;20036;-91
2020/12/24 06:43:57;;;;;;;2.50;1.80;;;;;;;3.41;100.00;100376.78;5014230;28;20048;-90
2020/12/24 06:46:22;;;;;;;2.10;1.75;;;;;;;3.38;100.00;100384.03;5030884;28;20132;-90
2020/12/24 06:49:04;;;;;;;3.58;1.80;;;;;;;3.44;100.00;100384.50;5016191;28;20068;-89
2020/12/24 06:51:49;;;;;;;2.92;2.08;;;;;;;3.45;100.00;100388.81;5033135;28;20557;-89
2020/12/24 06:54:28;;;;;;;2.25;1.70;;;;;;;3.39;100.00;100400.78;5048648;28;20116;-87
2020/12/24 06:57:24;;;;;;;2.95;2.05;;;;;;;3.39;100.00;100412.25;5032479;28;20060;-87
2020/12/24 07:00:26;;;;;;;2.63;1.50;;;;;;;3.41;100.00;100413.94;5030937;28;20099;-87
2020/12/24 07:03:25;;;;;;;1.98;1.30;;;;;;;3.35;100.00;100417.94;5007131;28;20040;-90
2020/12/24 07:05:59;;;;;;;2.17;1.40;;;;;;;3.34;100.00;100430.34;5008959;28;20070;-89
2020/12/24 07:08:48;;;;;;;1.80;1.08;;;;;;;3.35;100.00;100425.88;5035062;28;20490;-87
2020/12/24 07:11:47;;;;;;;3.33;1.17;;;;;;;3.35;100.00;100436.50;5005747;28;20371;-87
2020/12/24 07:14:45;;;;;;;1.98;1.27;;;;;;;3.38;100.00;100441.53;4985826;28;20053;-89
2020/12/24 07:17:31;;;;;;;1.77;0.90;;;;;;;3.39;100.00;100437.91;5041315;28;20171;-90
2020/12/24 07:20:03;;;;;;;2.30;1.50;;;;;;;3.37;100.00;100443.34;5009287;28;20517;-90
2020/12/24 07:22:31;;;;;;;3.95;1.63;;;;;;;3.36;100.00;100444.31;5014148;28;20049;-89
2020/12/24 07:25:01;;;;;;;7.10;5.63;;;;;;;3.45;100.00;100449.81;5028336;28;20128;-92
2020/12/24 07:27:55;;;;;;;4.18;2.10;;;;;;;3.41;100.00;100440.44;5030844;28;20604;-89
2020/12/24 07:30:28;;;;;;;3.22;2.13;;;;;;;3.41;100.00;100440.44;5033012;28;20537;-90
2020/12/24 07:32:56;;;;;;;4.80;2.75;;;;;;;3.49;100.00;100427.41;5031424;28;20124;-91
2020/12/24 07:35:22;;;;;;;3.78;2.40;;;;;;;3.44;100.00;100417.16;5016256;28;20088;-86
2020/12/24 07:37:49;;;;;;;4.80;1.77;;;;;;;3.41;100.00;100419.22;5014469;28;20421;-90
2020/12/24 07:40:37;;;;;;;2.95;1.77;;;;;;;3.52;100.00;100427.13;5026993;28;20049;-88
2020/12/24 07:43:10;;;;;;;2.75;1.90;;;;;;;3.53;100.00;100440.25;5030610;28;20047;-87
2020/12/24 07:45:36;;;;;;;4.13;2.63;;;;;;;3.52;100.00;100446.56;5031968;28;20125;-88
2020/12/24 07:48:02;;;;;;;3.45;2.30;;;;;;;3.51;100.00;100447.53;5024170;28;20042;-88
2020/12/24 07:50:31;;;;;;;4.93;3.65;;;;;;;3.50;100.00;100460.91;5016527;28;20609;-90
2020/12/24 07:52:57;;;;;;;8.35;7.25;;;;;;;3.48;100.00;100463.69;5029104;28;20521;-89
2020/12/24 07:55:22;;;;;;;4.43;3.30;;;;;;;3.44;100.00;100478.16;5030373;28;20052;-89
2020/12/24 07:57:48;;;;;;;7.15;4.25;;;;;;;3.48;100.00;100482.28;5044489;28;20447;-88
2020/12/24 08:00:13;;;;;;;4.35;3.30;;;;;;;3.50;100.00;100484.78;5029544;28;20594;-92
2020/12/24 08:02:39;;;;;;;13.05;9.27;;;;;;;3.58;100.00;100479.69;5012629;28;20046;-88
2020/12/24 08:05:04;;;;;;;7.45;5.32;;;;;;;3.56;100.00;100477.16;5015331;28;20128;-91
2020/12/24 08:07:29;;;;;;;5.78;3.60;;;;;;;3.56;100.00;100487.75;5003704;28;20041;-88
2020/12/24 08:10:08;;;;;;;9.45;6.43;;;;;;;3.55;100.00;100495.88;5024281;28;20490;-88
2020/12/24 08:12:34;;;;;;;7.18;5.60;;;;;;;3.51;100.00;100507.69;5021382;28;20153;-88
2020/12/24 08:15:19;;;;;;;4.95;4.40;;;;;;;3.49;100.00;100518.44;5001538;28;20062;-91
2020/12/24 08:18:05;;;;;;;6.75;4.38;;;;;;;3.53;100.00;100521.69;5022457;28;20445;-87
2020/12/24 08:20:56;;;;;;;4.40;2.50;;;;;;;3.54;100.00;100526.00;5028164;28;20030;-86
2020/12/24 08:23:29;;;;;;;3.80;2.42;;;;;;;3.53;100.00;100534.94;4994744;28;20192;-88
2020/12/24 08:25:57;;;;;;;4.57;3.20;;;;;;;3.55;100.00;100546.28;5028751;28;20037;-89
2020/12/24 08:28:24;;;;;;;3.50;2.38;;;;;;;3.59;100.00;100550.34;5028160;28;20037;-87
2020/12/24 08:30:51;;;;;;;3.95;2.72;;;;;;;3.57;100.00;100554.97;5027595;28;20498;-88
2020/12/24 08:33:17;;;;;;;4.63;2.85;;;;;;;3.61;100.00;100567.00;5013937;28;20383;-87
2020/12/24 08:35:43;;;;;;;5.63;3.63;;;;;;;3.60;100.00;100566.16;5027861;28;20096;-88
2020/12/24 08:38:27;;;;;;;6.68;3.85;;;;;;;3.59;100.00;100560.97;5022928;28;20439;-90
2020/12/24 08:40:52;;;;;;;5.75;4.10;;;;;;;3.59;100.00;100567.13;5009188;28;20499;-91
2020/12/24 08:43:18;;;;;;;6.60;5.05;;;;;;;3.63;100.00;100573.03;5009156;28;20553;-89
2020/12/24 08:45:51;;;;;;;6.18;4.28;;;;;;;3.60;100.00;100574.13;5005562;28;20045;-88
2020/12/24 08:48:33;;;;;;;4.70;2.55;;;;;;;3.60;100.00;100573.28;5017946;28;20482;-88
2020/12/24 08:50:59;;;;;;;5.57;2.67;;;;;;;3.62;100.00;100589.91;5025386;28;20041;-88
2020/12/24 08:53:28;;;;;;;6.10;3.42;;;;;;;3.62;100.00;100592.56;5008653;28;20041;-87
2020/12/24 08:55:54;;;;;;;3.90;2.27;;;;;;;3.68;100.00;100602.69;5020051;28;20042;-87
2020/12/24 08:58:19;;;;;;;4.65;2.25;;;;;;;3.61;100.00;100612.94;5003667;28;20057;-88
2020/12/24 09:00:45;;;;;;;4.45;2.05;;;;;;;3.59;100.00;100616.69;5009360;28;20470;-88
2020/12/24 09:03:26;;;;;;;4.30;2.80;;;;;;;3.64;100.00;100617.16;5021053;28;20123;-89
2020/12/24 09:05:52;;;;;;;5.68;3.05;;;;;;;3.63;100.00;100615.50;5022284;28;20030;-89
2020/12/24 09:08:26;;;;;;;6.15;3.33;;;;;;;3.61;100.00;100615.59;5007164;28;20124;-87
2020/12/24 09:10:51;;;;;;;6.85;3.30;;;;;;;3.59;100.00;100609.56;5006986;28;20037;-87
2020/12/24 09:13:17;;;;;;;7.35;3.88;;;;;;;3.67;100.00;100616.91;5017764;28;20113;-88
2020/12/24 09:15:43;;;;;;;5.97;3.70;;;;;;;3.72;100.00;100624.53;5008513;28;20053;-86
2020/12/24 09:18:08;;;;;;;9.45;5.13;;;;;;;3.78;100.00;100632.00;5017425;28;20049;-86
2020/12/24 09:20:34;;;;;;;8.65;5.32;;;;;;;3.76;100.00;100641.88;5006018;28;20096;-90
2020/12/24 09:23:06;;;;;;;9.57;5.50;;;;;;;3.78;100.00;100638.13;5020505;28;20038;-89
2020/12/24 09:25:43;;;;;;;11.00;6.00;;;;;;;3.78;100.00;100651.41;5024771;28;20045;-86
2020/12/24 09:28:21;;;;;;;9.65;6.40;;;;;;;3.79;100.00;100658.38;5019309;28;20049;-85
2020/12/24 09:30:46;;;;;;;11.68;8.45;;;;;;;3.80;100.00;100660.09;5022134;28;20033;-87
2020/12/24 09:33:12;;;;;;;12.15;7.22;;;;;;;3.81;100.00;100661.78;5022455;28;20560;-87
2020/12/24 09:35:37;;;;;;;9.43;6.18;;;;;;;3.87;100.00;100670.22;5028316;28;20045;-88
2020/12/24 09:38:03;;;;;;;9.35;6.30;;;;;;;3.86;100.00;100668.53;5026483;28;20120;-91
2020/12/24 09:40:28;;;;;;;7.28;4.95;;;;;;;3.81;100.00;100677.69;5024292;28;20030;-88
2020/12/24 09:42:54;;;;;;;9.23;6.40;;;;;;;3.87;100.00;100680.84;5006885;28;20041;-87
2020/12/24 09:45:19;;;;;;;11.98;7.30;;;;;;;3.93;100.00;100683.00;5024721;28;20428;-86
2020/12/24 09:47:46;;;;;;;9.15;6.10;;;;;;;3.92;100.00;100682.16;5013345;28;20158;-86
2020/12/24 09:50:12;;;;;;;7.90;4.90;;;;;;;3.90;100.00;100696.50;5028366;28;20054;-89
2020/12/24 09:52:37;;;;;;;12.02;6.13;;;;;;;3.92;100.00;100698.09;5018073;28;20504;-86
2020/12/24 09:55:04;;;;;;;8.02;4.75;;;;;;;3.92;100.00;100708.69;5030429;28;20041;-88
2020/12/24 09:57:29;;;;;;;8.07;4.38;;;;;;;3.92;100.00;100711.34;5009403;28;20045;-90
2020/12/24 09:59:54;;;;;;;6.57;3.92;;;;;;;3.90;100.00;100715.94;5006676;28;20142;-86
2020/12/24 10:02:20;;;;;;;6.63;4.30;;;;;;;3.94;100.00;100724.50;4989003;28;20067;-88
2020/12/24 10:04:45;;;;;;;6.40;4.20;;;;;;;3.96;100.00;100725.22;5007579;28;20053;-87
2020/12/24 10:07:12;;;;;;;7.35;4.20;;;;;;;3.95;100.00;100731.50;5009038;28;20064;-88
2020/12/24 10:09:38;;;;;;;7.40;4.13;;;;;;;3.96;100.00;100733.19;5024950;28;20036;-85
2020/12/24 10:12:03;;;;;;;6.78;4.45;;;;;;;3.90;100.00;100715.94;5026661;28;20487;-87
2020/12/24 10:14:28;;;;;;;8.18;4.50;;;;;;;3.88;100.00;100719.69;5017577;28;20046;-86
2020/12/24 10:16:54;;;;;;;7.75;4.43;;;;;;;3.89;100.00;100721.38;5009222;28;20037;-87
2020/12/24 10:19:20;;;;;;;7.43;4.90;;;;;;;3.94;100.00;100713.88;5025238;28;20502;-87
2020/12/24 10:21:45;;;;;;;8.82;5.95;;;;;;;3.93;100.00;100715.69;5004623;28;20169;-88
2020/12/24 10:24:10;;;;;;;9.45;5.85;;;;;;;3.97;100.00;100719.81;5008524;28;20045;-86
2020/12/24 10:26:38;;;;;;;7.72;5.85;;;;;;;3.95;100.00;100718.25;5008514;28;20044;-87
2020/12/24 10:29:03;;;;;;;8.15;5.53;;;;;;;3.97;100.00;100726.91;5006987;28;20057;-86
2020/12/24 10:31:28;;;;;;;7.55;5.65;;;;;;;3.96;100.00;100728.72;5012791;28;20042;-86
2020/12/24 10:33:54;;;;;;;8.77;6.13;;;;;;;4.02;100.00;100732.69;5013799;28;20486;-87
2020/12/24 10:36:24;;;;;;;8.93;5.15;;;;;;;4.00;100.00;100729.31;5005749;28;20069;-88
2020/12/24 10:38:49;;;;;;;10.18;6.10;;;;;;;4.05;100.00;100737.75;5017223;28;20038;-87
2020/12/24 10:41:15;;;;;;;8.90;5.85;;;;;;;4.10;100.00;100732.94;5024889;28;20041;-88
2020/12/24 10:43:41;;;;;;;9.50;5.85;;;;;;;4.07;100.00;100741.97;5015497;28;20517;-86
2020/12/24 10:46:06;;;;;;;11.18;6.22;;;;;;;4.09;100.00;100739.22;5010031;28;20073;-86
2020/12/24 10:48:32;;;;;;;11.27;6.10;;;;;;;4.11;100.00;100737.25;5008221;28;20037;-88
2020/12/24 10:50:57;;;;;;;11.00;6.82;;;;;;;4.15;100.00;100728.09;5024873;28;20484;-87
2020/12/24 10:53:23;;;;;;;11.90;7.40;;;;;;;4.17;100.00;100736.78;5023923;28;20521;-88
2020/12/24 10:55:48;;;;;;;9.27;5.82;;;;;;;4.19;100.00;100737.47;5021470;28;20034;-88
2020/12/24 10:58:14;;;;;;;10.00;6.43;;;;;;;4.22;100.00;100742.53;5021778;28;20124;-87
2020/12/24 11:00:40;;;;;;;11.55;6.97;;;;;;;4.21;100.00;100740.88;5022582;28;20038;-89
2020/12/24 11:03:05;;;;;;;11.38;7.20;;;;;;;4.27;100.00;100742.19;5022712;28;20453;-88
2020/12/24 11:05:31;;;;;;;11.68;7.20;;;;;;;4.31;100.00;100740.94;5004893;28;20067;-85
2020/12/24 11:07:56;;;;;;;10.80;6.97;;;;;;;4.30;100.00;100747.25;5011159;28;20483;-87
2020/12/24 11:10:22;;;;;;;13.32;7.18;;;;;;;4.32;100.00;100737.34;5001735;28;20041;-88
2020/12/24 11:12:47;;;;;;;13.88;7.32;;;;;;;4.36;100.00;100752.06;5016117;28;20093;-88
2020/12/24 11:15:12;;;;;;;11.80;7.47;;;;;;;4.40;100.00;100747.31;5024387;28;20513;-85
2020/12/24 11:17:38;;;;;;;11.52;7.20;;;;;;;4.41;100.00;100754.34;5008839;28;20088;-89
2020/12/24 11:20:05;;;;;;;11.70;7.65;;;;;;;4.44;100.00;100756.75;4996788;28;20053;-86
2020/12/24 11:22:31;;;;;;;14.32;7.50;;;;;;;4.42;100.00;100751.56;5027683;28;20049;-86
2020/12/24 11:24:57;;;;;;;12.75;7.07;;;;;;;4.45;100.00;100747.81;5007543;28;20502;-89
2020/12/24 11:27:23;;;;;;;11.00;5.93;;;;;;;4.44;100.00;100741.66;5017067;28;20050;-88
2020/12/24 11:29:50;;;;;;;11.00;7.15;;;;;;;4.49;100.00;100751.91;5019899;28;20353;-87
2020/12/24 11:32:15;;;;;;;13.52;7.38;;;;;;;4.51;100.00;100747.28;5026477;28;20042;-91
2020/12/24 11:34:42;;;;;;;14.18;8.93;;;;;;;4.55;100.00;100745.25;5026262;28;20045;-91
2020/12/24 11:37:07;;;;;;;13.85;8.68;;;;;;;4.53;100.00;100740.06;5038097;28;20038;-89
2020/12/24 11:39:33;;;;;;;10.65;7.28;;;;;;;4.57;100.00;100740.63;5023962;28;20399;-89